Airfield :
LOGIN :

Register | Disclaimer

   EN    FR    IT 

 










Legend :    VFR   Marginal VFR   IFR   Intensive IFR   Very Intensive IFR
Visi :
Ceiling :
>= 8 km
>= 3000ft
5 to 8 km
1000 to 3000 ft
1500m to 5 km
500 to 1000 ft
800 to 1500m
200 to 500 ft
< 800m
< 200 ft
Symbols :   Thunderstorms  Fog  Heavy snow  Heavy precipitations  Wind > 20 kt
SIGMETs :     Misc.  Thunderstorms  Icing  Turbulence  Mountain Waves  Volcanic Ashes







- Airport Elevation : 1260 ft
- IATA code : LDE
- Download approach charts


LFBT - Tarbes / Ossun

CURRENT METAR :
  • 191000Z AUTO VRB02KT CAVOK 12/07 Q1022 NOSIG

EXPIRED METARs :
  • 190930Z AUTO VRB03KT CAVOK 10/05 Q1022 NOSIG
  • 190900Z AUTO 18005KT CAVOK 09/03 Q1022 NOSIG
  • 190830Z AUTO 17005KT CAVOK 07/03 Q1022 NOSIG
  • 190800Z AUTO 17006KT CAVOK 05/02 Q1021 NOSIG
  • 190730Z AUTO 17006KT 9999 FEW009 04/01 Q1021 NOSIG

TAF AMD TAF LFBT
Valid from the 19 at 09:00 until the 20 at 06:00 UTC


190938Z 1909/2006 VRB02KT CAVOK
BECMG 1910/1912 06005KT
PROB30
TEMPO 1920/2002 3000 BR BKN002
No reported NOTAMs for that airfield.
1 SIGMET reported for the Bordeaux FIR (LFBB) :
 
Severe turbulence
LFBB SIGMET 2 VALID 190800/191200 LFPW
LFBB BORDEAUX FIR/UIR SEV TURB FCST NW OF LINE N4330 W00145 - N4715 E00130 FL200/300 STNR NC=



MET'MAP, your aeronautical weather chart ! - Copyright ORBIFLY December 2007 - Disclaimer

ORBIFLY MET'MAP TEAM :

Programming & Development : Alexandra Zaïnal
Concept & Development : Baudouin d'Aumeries
Co-Development & Prog : Marc-Olivier Méhu
Technical & hardware support : Manuel Goepfert

Contact : metmap@orbifly.com




SOURCES & CREDITS :

   NOAA